sensor_id;sensor_type;location;lat;lon;timestamp;P1;durP1;ratioP1;P2;durP2;ratioP2
75971;SDS011;64651;47.540;19.088;2023-05-17T00:01:22;19.75;;;11.50;;
75971;SDS011;64651;47.540;19.088;2023-05-17T00:06:24;19.83;;;11.43;;
75971;SDS011;64651;47.540;19.088;2023-05-17T00:11:27;26.13;;;11.07;;
75971;SDS011;64651;47.540;19.088;2023-05-17T00:16:29;19.48;;;10.35;;
75971;SDS011;64651;47.540;19.088;2023-05-17T00:21:31;22.95;;;11.38;;
75971;SDS011;64651;47.540;19.088;2023-05-17T00:26:34;19.33;;;11.12;;
75971;SDS011;64651;47.540;19.088;2023-05-17T00:31:36;24.52;;;11.45;;
75971;SDS011;64651;47.540;19.088;2023-05-17T00:36:38;20.77;;;11.23;;
75971;SDS011;64651;47.540;19.088;2023-05-17T00:41:41;18.90;;;9.95;;
75971;SDS011;64651;47.540;19.088;2023-05-17T00:46:44;22.13;;;10.68;;
75971;SDS011;64651;47.540;19.088;2023-05-17T00:51:49;19.05;;;10.45;;
75971;SDS011;64651;47.540;19.088;2023-05-17T00:56:52;20.70;;;10.63;;
75971;SDS011;64651;47.540;19.088;2023-05-17T01:01:55;23.03;;;11.00;;
75971;SDS011;64651;47.540;19.088;2023-05-17T01:06:58;22.27;;;10.90;;
75971;SDS011;64651;47.540;19.088;2023-05-17T01:17:16;20.92;;;10.65;;
75971;SDS011;64651;47.540;19.088;2023-05-17T01:22:26;21.52;;;10.73;;
75971;SDS011;64651;47.540;19.088;2023-05-17T01:27:35;23.67;;;11.57;;
75971;SDS011;64651;47.540;19.088;2023-05-17T01:32:40;20.35;;;10.82;;
75971;SDS011;64651;47.540;19.088;2023-05-17T01:37:44;22.35;;;11.32;;
75971;SDS011;64651;47.540;19.088;2023-05-17T01:42:53;23.50;;;11.38;;
75971;SDS011;64651;47.540;19.088;2023-05-17T01:53:22;22.73;;;12.00;;
75971;SDS011;64651;47.540;19.088;2023-05-17T01:58:30;21.80;;;11.77;;
75971;SDS011;64651;47.540;19.088;2023-05-17T02:03:40;20.42;;;11.73;;
75971;SDS011;64651;47.540;19.088;2023-05-17T02:08:43;20.23;;;11.02;;
75971;SDS011;64651;47.540;19.088;2023-05-17T02:13:45;20.98;;;10.90;;
75971;SDS011;64651;47.540;19.088;2023-05-17T02:18:47;29.13;;;12.57;;
75971;SDS011;64651;47.540;19.088;2023-05-17T02:23:50;27.73;;;13.02;;
75971;SDS011;64651;47.540;19.088;2023-05-17T02:28:52;26.02;;;12.50;;
75971;SDS011;64651;47.540;19.088;2023-05-17T02:33:54;26.27;;;12.68;;
75971;SDS011;64651;47.540;19.088;2023-05-17T02:38:57;27.98;;;13.07;;
75971;SDS011;64651;47.540;19.088;2023-05-17T02:43:59;24.37;;;12.03;;
75971;SDS011;64651;47.540;19.088;2023-05-17T02:49:01;23.73;;;12.45;;
75971;SDS011;64651;47.540;19.088;2023-05-17T02:54:04;20.35;;;11.40;;
75971;SDS011;64651;47.540;19.088;2023-05-17T02:59:06;21.83;;;11.52;;
75971;SDS011;64651;47.540;19.088;2023-05-17T03:04:09;27.23;;;11.95;;
75971;SDS011;64651;47.540;19.088;2023-05-17T03:09:12;26.07;;;11.93;;
75971;SDS011;64651;47.540;19.088;2023-05-17T03:14:14;23.75;;;11.80;;
75971;SDS011;64651;47.540;19.088;2023-05-17T03:19:17;24.45;;;11.82;;
75971;SDS011;64651;47.540;19.088;2023-05-17T03:24:19;23.85;;;12.45;;
75971;SDS011;64651;47.540;19.088;2023-05-17T03:29:21;21.15;;;11.80;;
75971;SDS011;64651;47.540;19.088;2023-05-17T03:34:24;23.30;;;11.40;;
75971;SDS011;64651;47.540;19.088;2023-05-17T03:39:26;23.87;;;12.85;;
75971;SDS011;64651;47.540;19.088;2023-05-17T03:44:29;21.30;;;11.10;;
75971;SDS011;64651;47.540;19.088;2023-05-17T03:49:32;22.67;;;11.98;;
75971;SDS011;64651;47.540;19.088;2023-05-17T03:54:34;21.55;;;11.77;;
75971;SDS011;64651;47.540;19.088;2023-05-17T03:59:37;25.73;;;12.07;;
75971;SDS011;64651;47.540;19.088;2023-05-17T04:04:39;22.62;;;11.30;;
75971;SDS011;64651;47.540;19.088;2023-05-17T04:09:41;20.02;;;10.57;;
75971;SDS011;64651;47.540;19.088;2023-05-17T04:14:43;17.98;;;10.70;;
75971;SDS011;64651;47.540;19.088;2023-05-17T04:19:45;21.92;;;10.07;;
75971;SDS011;64651;47.540;19.088;2023-05-17T04:24:48;20.00;;;10.30;;
75971;SDS011;64651;47.540;19.088;2023-05-17T04:29:50;22.42;;;10.82;;
75971;SDS011;64651;47.540;19.088;2023-05-17T04:34:53;22.10;;;10.15;;
75971;SDS011;64651;47.540;19.088;2023-05-17T04:39:57;21.17;;;10.70;;
75971;SDS011;64651;47.540;19.088;2023-05-17T04:44:59;17.50;;;10.18;;
75971;SDS011;64651;47.540;19.088;2023-05-17T04:50:02;21.53;;;10.40;;
75971;SDS011;64651;47.540;19.088;2023-05-17T04:55:05;19.45;;;10.27;;
75971;SDS011;64651;47.540;19.088;2023-05-17T05:00:08;27.52;;;11.23;;
75971;SDS011;64651;47.540;19.088;2023-05-17T05:05:10;20.35;;;10.75;;
75971;SDS011;64651;47.540;19.088;2023-05-17T05:10:13;20.83;;;10.18;;
75971;SDS011;64651;47.540;19.088;2023-05-17T05:15:15;17.53;;;9.50;;
75971;SDS011;64651;47.540;19.088;2023-05-17T05:20:17;21.08;;;10.15;;
75971;SDS011;64651;47.540;19.088;2023-05-17T05:25:20;19.67;;;10.38;;
75971;SDS011;64651;47.540;19.088;2023-05-17T05:30:22;19.53;;;11.93;;
75971;SDS011;64651;47.540;19.088;2023-05-17T05:35:24;19.83;;;11.35;;
75971;SDS011;64651;47.540;19.088;2023-05-17T05:40:31;20.33;;;11.67;;
75971;SDS011;64651;47.540;19.088;2023-05-17T05:45:33;19.40;;;11.85;;
75971;SDS011;64651;47.540;19.088;2023-05-17T05:50:36;19.90;;;11.90;;
75971;SDS011;64651;47.540;19.088;2023-05-17T05:55:39;23.03;;;13.60;;
75971;SDS011;64651;47.540;19.088;2023-05-17T06:00:44;23.27;;;12.60;;
75971;SDS011;64651;47.540;19.088;2023-05-17T06:05:46;20.60;;;12.37;;
75971;SDS011;64651;47.540;19.088;2023-05-17T06:10:49;19.45;;;11.43;;
75971;SDS011;64651;47.540;19.088;2023-05-17T06:15:51;18.12;;;11.10;;
75971;SDS011;64651;47.540;19.088;2023-05-17T06:20:53;19.30;;;11.57;;
75971;SDS011;64651;47.540;19.088;2023-05-17T06:25:56;19.83;;;10.20;;
75971;SDS011;64651;47.540;19.088;2023-05-17T06:30:58;17.60;;;10.63;;
75971;SDS011;64651;47.540;19.088;2023-05-17T06:36:00;19.27;;;10.82;;
75971;SDS011;64651;47.540;19.088;2023-05-17T06:41:05;20.35;;;11.68;;
75971;SDS011;64651;47.540;19.088;2023-05-17T06:46:08;20.33;;;11.23;;
75971;SDS011;64651;47.540;19.088;2023-05-17T06:51:19;18.48;;;10.48;;
75971;SDS011;64651;47.540;19.088;2023-05-17T06:56:21;19.33;;;10.40;;
75971;SDS011;64651;47.540;19.088;2023-05-17T07:01:23;20.88;;;10.65;;
75971;SDS011;64651;47.540;19.088;2023-05-17T07:06:26;18.17;;;10.63;;
75971;SDS011;64651;47.540;19.088;2023-05-17T07:11:28;22.47;;;11.33;;
75971;SDS011;64651;47.540;19.088;2023-05-17T07:16:31;21.85;;;10.80;;
75971;SDS011;64651;47.540;19.088;2023-05-17T07:21:33;22.07;;;11.13;;
75971;SDS011;64651;47.540;19.088;2023-05-17T07:26:35;18.85;;;10.40;;
75971;SDS011;64651;47.540;19.088;2023-05-17T07:31:37;21.00;;;11.35;;
75971;SDS011;64651;47.540;19.088;2023-05-17T07:36:39;21.80;;;11.12;;
75971;SDS011;64651;47.540;19.088;2023-05-17T07:41:42;21.20;;;11.02;;
75971;SDS011;64651;47.540;19.088;2023-05-17T07:46:44;19.80;;;11.23;;
75971;SDS011;64651;47.540;19.088;2023-05-17T07:51:46;21.42;;;10.63;;
75971;SDS011;64651;47.540;19.088;2023-05-17T07:56:48;21.65;;;12.27;;
75971;SDS011;64651;47.540;19.088;2023-05-17T08:01:51;21.07;;;11.20;;
75971;SDS011;64651;47.540;19.088;2023-05-17T08:06:53;20.80;;;10.93;;
75971;SDS011;64651;47.540;19.088;2023-05-17T08:11:56;21.13;;;11.03;;
75971;SDS011;64651;47.540;19.088;2023-05-17T08:16:58;19.87;;;9.68;;
75971;SDS011;64651;47.540;19.088;2023-05-17T08:22:01;22.48;;;10.85;;
75971;SDS011;64651;47.540;19.088;2023-05-17T08:27:04;19.60;;;9.82;;
75971;SDS011;64651;47.540;19.088;2023-05-17T08:32:06;21.37;;;11.10;;
75971;SDS011;64651;47.540;19.088;2023-05-17T08:37:08;19.77;;;10.43;;
75971;SDS011;64651;47.540;19.088;2023-05-17T08:42:11;19.15;;;10.85;;
75971;SDS011;64651;47.540;19.088;2023-05-17T08:47:14;21.20;;;11.10;;
75971;SDS011;64651;47.540;19.088;2023-05-17T08:52:30;19.95;;;9.25;;
75971;SDS011;64651;47.540;19.088;2023-05-17T08:57:34;20.30;;;10.73;;
75971;SDS011;64651;47.540;19.088;2023-05-17T09:02:40;19.57;;;10.10;;
75971;SDS011;64651;47.540;19.088;2023-05-17T09:07:43;20.25;;;9.77;;
75971;SDS011;64651;47.540;19.088;2023-05-17T09:12:47;19.10;;;10.05;;
75971;SDS011;64651;47.540;19.088;2023-05-17T09:17:50;17.12;;;10.32;;
75971;SDS011;64651;47.540;19.088;2023-05-17T09:22:54;17.02;;;9.85;;
75971;SDS011;64651;47.540;19.088;2023-05-17T09:28:00;17.57;;;9.70;;
75971;SDS011;64651;47.540;19.088;2023-05-17T09:33:03;19.12;;;9.52;;
75971;SDS011;64651;47.540;19.088;2023-05-17T09:38:10;17.75;;;9.32;;
75971;SDS011;64651;47.540;19.088;2023-05-17T09:43:14;18.90;;;9.30;;
75971;SDS011;64651;47.540;19.088;2023-05-17T09:48:18;16.10;;;8.93;;
75971;SDS011;64651;47.540;19.088;2023-05-17T09:53:27;16.67;;;9.87;;
75971;SDS011;64651;47.540;19.088;2023-05-17T09:58:35;18.42;;;9.57;;
75971;SDS011;64651;47.540;19.088;2023-05-17T10:03:38;15.15;;;9.25;;
75971;SDS011;64651;47.540;19.088;2023-05-17T10:08:41;16.63;;;9.13;;
75971;SDS011;64651;47.540;19.088;2023-05-17T10:19:29;14.23;;;7.80;;
75971;SDS011;64651;47.540;19.088;2023-05-17T10:24:33;14.65;;;8.40;;
75971;SDS011;64651;47.540;19.088;2023-05-17T10:29:38;13.45;;;7.70;;
75971;SDS011;64651;47.540;19.088;2023-05-17T10:34:41;15.83;;;8.30;;
75971;SDS011;64651;47.540;19.088;2023-05-17T10:39:46;12.13;;;6.80;;
75971;SDS011;64651;47.540;19.088;2023-05-17T10:44:51;11.97;;;7.50;;
75971;SDS011;64651;47.540;19.088;2023-05-17T10:49:55;15.13;;;8.13;;
75971;SDS011;64651;47.540;19.088;2023-05-17T10:54:58;12.30;;;6.95;;
75971;SDS011;64651;47.540;19.088;2023-05-17T11:00:02;12.07;;;6.53;;
75971;SDS011;64651;47.540;19.088;2023-05-17T11:05:21;11.27;;;6.70;;
75971;SDS011;64651;47.540;19.088;2023-05-17T11:10:25;11.20;;;6.10;;
75971;SDS011;64651;47.540;19.088;2023-05-17T11:15:31;10.95;;;6.35;;
75971;SDS011;64651;47.540;19.088;2023-05-17T11:20:34;10.57;;;6.45;;
75971;SDS011;64651;47.540;19.088;2023-05-17T11:25:38;10.47;;;6.13;;
75971;SDS011;64651;47.540;19.088;2023-05-17T11:30:41;11.35;;;5.93;;
75971;SDS011;64651;47.540;19.088;2023-05-17T11:35:48;10.80;;;6.20;;
75971;SDS011;64651;47.540;19.088;2023-05-17T11:40:55;10.57;;;5.65;;
75971;SDS011;64651;47.540;19.088;2023-05-17T11:45:58;13.48;;;5.45;;
75971;SDS011;64651;47.540;19.088;2023-05-17T11:51:04;9.47;;;5.30;;
75971;SDS011;64651;47.540;19.088;2023-05-17T11:56:07;10.25;;;5.45;;
75971;SDS011;64651;47.540;19.088;2023-05-17T12:01:10;10.67;;;5.60;;
75971;SDS011;64651;47.540;19.088;2023-05-17T12:06:13;10.63;;;5.45;;
75971;SDS011;64651;47.540;19.088;2023-05-17T12:11:18;12.18;;;5.60;;
75971;SDS011;64651;47.540;19.088;2023-05-17T12:16:22;10.30;;;5.17;;
75971;SDS011;64651;47.540;19.088;2023-05-17T12:21:26;9.00;;;5.22;;
75971;SDS011;64651;47.540;19.088;2023-05-17T12:26:28;10.33;;;5.43;;
75971;SDS011;64651;47.540;19.088;2023-05-17T12:31:37;9.23;;;5.07;;
75971;SDS011;64651;47.540;19.088;2023-05-17T12:36:41;10.88;;;5.22;;
75971;SDS011;64651;47.540;19.088;2023-05-17T12:41:45;8.95;;;4.93;;
75971;SDS011;64651;47.540;19.088;2023-05-17T12:46:48;9.88;;;5.37;;
75971;SDS011;64651;47.540;19.088;2023-05-17T12:52:02;8.30;;;4.93;;
75971;SDS011;64651;47.540;19.088;2023-05-17T12:57:09;7.65;;;4.40;;
75971;SDS011;64651;47.540;19.088;2023-05-17T13:02:14;8.85;;;4.18;;
75971;SDS011;64651;47.540;19.088;2023-05-17T13:07:20;8.00;;;4.37;;
75971;SDS011;64651;47.540;19.088;2023-05-17T13:12:27;9.50;;;4.43;;
75971;SDS011;64651;47.540;19.088;2023-05-17T13:17:33;9.10;;;3.73;;
75971;SDS011;64651;47.540;19.088;2023-05-17T13:24:15;8.23;;;3.95;;
75971;SDS011;64651;47.540;19.088;2023-05-17T13:29:17;8.87;;;4.20;;
75971;SDS011;64651;47.540;19.088;2023-05-17T13:34:32;7.78;;;4.37;;
75971;SDS011;64651;47.540;19.088;2023-05-17T13:39:34;8.02;;;4.37;;
75971;SDS011;64651;47.540;19.088;2023-05-17T13:44:37;8.63;;;4.80;;
75971;SDS011;64651;47.540;19.088;2023-05-17T13:49:39;8.90;;;4.97;;
75971;SDS011;64651;47.540;19.088;2023-05-17T13:54:42;9.40;;;4.60;;
75971;SDS011;64651;47.540;19.088;2023-05-17T13:59:44;8.88;;;4.57;;
75971;SDS011;64651;47.540;19.088;2023-05-17T14:04:47;8.95;;;4.93;;
75971;SDS011;64651;47.540;19.088;2023-05-17T14:09:49;8.23;;;4.40;;
75971;SDS011;64651;47.540;19.088;2023-05-17T14:14:51;9.02;;;5.15;;
75971;SDS011;64651;47.540;19.088;2023-05-17T14:19:53;8.53;;;5.43;;
75971;SDS011;64651;47.540;19.088;2023-05-17T14:24:56;7.90;;;4.55;;
75971;SDS011;64651;47.540;19.088;2023-05-17T14:29:58;10.30;;;4.30;;
75971;SDS011;64651;47.540;19.088;2023-05-17T14:35:02;8.20;;;3.77;;
75971;SDS011;64651;47.540;19.088;2023-05-17T14:40:05;8.52;;;3.87;;
75971;SDS011;64651;47.540;19.088;2023-05-17T14:45:07;8.60;;;3.87;;
75971;SDS011;64651;47.540;19.088;2023-05-17T14:50:10;7.35;;;3.15;;
75971;SDS011;64651;47.540;19.088;2023-05-17T14:55:13;7.32;;;3.00;;
75971;SDS011;64651;47.540;19.088;2023-05-17T15:00:17;6.80;;;2.50;;
75971;SDS011;64651;47.540;19.088;2023-05-17T15:05:20;6.90;;;3.10;;
75971;SDS011;64651;47.540;19.088;2023-05-17T15:10:23;7.40;;;2.87;;
75971;SDS011;64651;47.540;19.088;2023-05-17T15:15:25;9.30;;;2.70;;
75971;SDS011;64651;47.540;19.088;2023-05-17T15:20:27;6.12;;;2.55;;
75971;SDS011;64651;47.540;19.088;2023-05-17T15:25:30;8.10;;;2.60;;
75971;SDS011;64651;47.540;19.088;2023-05-17T15:30:33;6.12;;;2.55;;
75971;SDS011;64651;47.540;19.088;2023-05-17T15:35:38;6.53;;;2.50;;
75971;SDS011;64651;47.540;19.088;2023-05-17T15:40:42;6.70;;;2.20;;
75971;SDS011;64651;47.540;19.088;2023-05-17T15:45:45;6.78;;;2.50;;
75971;SDS011;64651;47.540;19.088;2023-05-17T15:50:47;6.23;;;1.87;;
75971;SDS011;64651;47.540;19.088;2023-05-17T15:55:50;7.70;;;2.20;;
75971;SDS011;64651;47.540;19.088;2023-05-17T16:00:53;7.53;;;2.53;;
75971;SDS011;64651;47.540;19.088;2023-05-17T16:05:55;4.72;;;1.70;;
75971;SDS011;64651;47.540;19.088;2023-05-17T16:10:58;7.00;;;2.05;;
75971;SDS011;64651;47.540;19.088;2023-05-17T16:16:03;10.70;;;3.05;;
75971;SDS011;64651;47.540;19.088;2023-05-17T16:21:05;6.30;;;1.67;;
75971;SDS011;64651;47.540;19.088;2023-05-17T16:26:08;4.70;;;1.60;;
75971;SDS011;64651;47.540;19.088;2023-05-17T16:31:10;5.00;;;1.87;;
75971;SDS011;64651;47.540;19.088;2023-05-17T16:36:13;5.43;;;1.70;;
75971;SDS011;64651;47.540;19.088;2023-05-17T16:41:15;5.32;;;1.95;;
75971;SDS011;64651;47.540;19.088;2023-05-17T16:46:17;5.45;;;1.85;;
75971;SDS011;64651;47.540;19.088;2023-05-17T16:51:22;5.10;;;1.80;;
75971;SDS011;64651;47.540;19.088;2023-05-17T16:56:25;6.18;;;1.90;;
75971;SDS011;64651;47.540;19.088;2023-05-17T17:01:27;5.45;;;2.00;;
75971;SDS011;64651;47.540;19.088;2023-05-17T17:06:29;8.23;;;2.42;;
75971;SDS011;64651;47.540;19.088;2023-05-17T17:11:32;7.85;;;2.10;;
75971;SDS011;64651;47.540;19.088;2023-05-17T17:16:34;7.70;;;2.43;;
75971;SDS011;64651;47.540;19.088;2023-05-17T17:21:36;6.05;;;2.20;;
75971;SDS011;64651;47.540;19.088;2023-05-17T17:26:39;5.72;;;2.30;;
75971;SDS011;64651;47.540;19.088;2023-05-17T17:31:41;7.00;;;2.60;;
75971;SDS011;64651;47.540;19.088;2023-05-17T17:36:44;7.18;;;2.65;;
75971;SDS011;64651;47.540;19.088;2023-05-17T17:41:46;7.20;;;2.90;;
75971;SDS011;64651;47.540;19.088;2023-05-17T17:46:48;7.20;;;3.10;;
75971;SDS011;64651;47.540;19.088;2023-05-17T17:51:51;7.30;;;3.10;;
75971;SDS011;64651;47.540;19.088;2023-05-17T17:56:53;7.45;;;3.00;;
75971;SDS011;64651;47.540;19.088;2023-05-17T18:01:56;7.40;;;3.10;;
75971;SDS011;64651;47.540;19.088;2023-05-17T18:07:00;7.77;;;3.27;;
75971;SDS011;64651;47.540;19.088;2023-05-17T18:12:03;7.43;;;2.85;;
75971;SDS011;64651;47.540;19.088;2023-05-17T18:17:06;7.10;;;3.20;;
75971;SDS011;64651;47.540;19.088;2023-05-17T18:22:09;7.55;;;3.50;;
75971;SDS011;64651;47.540;19.088;2023-05-17T18:27:11;7.70;;;3.25;;
75971;SDS011;64651;47.540;19.088;2023-05-17T18:32:16;6.57;;;2.87;;
75971;SDS011;64651;47.540;19.088;2023-05-17T18:37:18;8.60;;;3.58;;
75971;SDS011;64651;47.540;19.088;2023-05-17T18:42:20;8.40;;;3.40;;
75971;SDS011;64651;47.540;19.088;2023-05-17T18:47:25;7.12;;;3.42;;
75971;SDS011;64651;47.540;19.088;2023-05-17T18:52:28;8.30;;;3.70;;
75971;SDS011;64651;47.540;19.088;2023-05-17T18:57:31;7.60;;;3.60;;
75971;SDS011;64651;47.540;19.088;2023-05-17T19:02:33;8.35;;;3.90;;
75971;SDS011;64651;47.540;19.088;2023-05-17T19:07:35;9.43;;;3.72;;
75971;SDS011;64651;47.540;19.088;2023-05-17T19:12:37;9.25;;;4.00;;
75971;SDS011;64651;47.540;19.088;2023-05-17T19:17:40;9.40;;;3.55;;
75971;SDS011;64651;47.540;19.088;2023-05-17T19:22:42;9.03;;;4.00;;
75971;SDS011;64651;47.540;19.088;2023-05-17T19:27:45;8.63;;;4.28;;
75971;SDS011;64651;47.540;19.088;2023-05-17T19:32:48;9.90;;;3.78;;
75971;SDS011;64651;47.540;19.088;2023-05-17T19:37:50;8.95;;;4.20;;
75971;SDS011;64651;47.540;19.088;2023-05-17T19:42:53;10.00;;;3.95;;
75971;SDS011;64651;47.540;19.088;2023-05-17T19:47:55;9.37;;;4.70;;
75971;SDS011;64651;47.540;19.088;2023-05-17T19:52:57;8.20;;;4.10;;
75971;SDS011;64651;47.540;19.088;2023-05-17T19:58:00;8.10;;;4.10;;
75971;SDS011;64651;47.540;19.088;2023-05-17T20:03:05;9.57;;;4.55;;
75971;SDS011;64651;47.540;19.088;2023-05-17T20:08:10;9.38;;;4.30;;
75971;SDS011;64651;47.540;19.088;2023-05-17T20:13:13;8.57;;;4.10;;
75971;SDS011;64651;47.540;19.088;2023-05-17T20:18:15;11.00;;;4.18;;
75971;SDS011;64651;47.540;19.088;2023-05-17T20:23:17;8.60;;;3.92;;
75971;SDS011;64651;47.540;19.088;2023-05-17T20:28:19;9.18;;;4.37;;
75971;SDS011;64651;47.540;19.088;2023-05-17T20:33:22;8.30;;;4.10;;
75971;SDS011;64651;47.540;19.088;2023-05-17T20:38:27;8.57;;;4.60;;
75971;SDS011;64651;47.540;19.088;2023-05-17T20:43:29;8.02;;;4.00;;
75971;SDS011;64651;47.540;19.088;2023-05-17T20:48:32;9.52;;;4.75;;
75971;SDS011;64651;47.540;19.088;2023-05-17T20:53:35;7.93;;;4.10;;
75971;SDS011;64651;47.540;19.088;2023-05-17T20:58:38;8.35;;;3.62;;
75971;SDS011;64651;47.540;19.088;2023-05-17T21:03:40;9.43;;;4.20;;
75971;SDS011;64651;47.540;19.088;2023-05-17T21:08:44;9.38;;;3.95;;
75971;SDS011;64651;47.540;19.088;2023-05-17T21:13:47;8.77;;;3.87;;
75971;SDS011;64651;47.540;19.088;2023-05-17T21:18:50;8.98;;;4.07;;
75971;SDS011;64651;47.540;19.088;2023-05-17T21:23:52;9.23;;;4.00;;
75971;SDS011;64651;47.540;19.088;2023-05-17T21:28:54;9.67;;;3.67;;
75971;SDS011;64651;47.540;19.088;2023-05-17T21:33:57;8.55;;;3.80;;
75971;SDS011;64651;47.540;19.088;2023-05-17T21:38:59;8.52;;;3.72;;
75971;SDS011;64651;47.540;19.088;2023-05-17T21:44:01;9.95;;;4.05;;
75971;SDS011;64651;47.540;19.088;2023-05-17T21:49:03;8.55;;;4.10;;
75971;SDS011;64651;47.540;19.088;2023-05-17T21:54:06;8.37;;;3.60;;
75971;SDS011;64651;47.540;19.088;2023-05-17T21:59:09;10.10;;;4.00;;
75971;SDS011;64651;47.540;19.088;2023-05-17T22:04:11;8.15;;;3.92;;
75971;SDS011;64651;47.540;19.088;2023-05-17T22:09:13;8.43;;;4.18;;
75971;SDS011;64651;47.540;19.088;2023-05-17T22:14:15;9.40;;;4.20;;
75971;SDS011;64651;47.540;19.088;2023-05-17T22:19:18;8.70;;;4.23;;
75971;SDS011;64651;47.540;19.088;2023-05-17T22:24:23;10.57;;;4.15;;
75971;SDS011;64651;47.540;19.088;2023-05-17T22:29:26;9.65;;;4.12;;
75971;SDS011;64651;47.540;19.088;2023-05-17T22:34:28;10.40;;;4.25;;
75971;SDS011;64651;47.540;19.088;2023-05-17T22:39:30;11.70;;;4.43;;
75971;SDS011;64651;47.540;19.088;2023-05-17T22:44:33;8.57;;;3.83;;
75971;SDS011;64651;47.540;19.088;2023-05-17T22:49:36;9.45;;;4.28;;
75971;SDS011;64651;47.540;19.088;2023-05-17T22:54:39;12.07;;;4.62;;
75971;SDS011;64651;47.540;19.088;2023-05-17T22:59:44;11.93;;;4.78;;
75971;SDS011;64651;47.540;19.088;2023-05-17T23:04:46;8.40;;;3.67;;
75971;SDS011;64651;47.540;19.088;2023-05-17T23:09:48;9.73;;;3.67;;
75971;SDS011;64651;47.540;19.088;2023-05-17T23:14:51;8.98;;;3.60;;
75971;SDS011;64651;47.540;19.088;2023-05-17T23:19:53;8.23;;;3.37;;
75971;SDS011;64651;47.540;19.088;2023-05-17T23:24:56;8.52;;;3.50;;
75971;SDS011;64651;47.540;19.088;2023-05-17T23:29:59;9.52;;;3.58;;
75971;SDS011;64651;47.540;19.088;2023-05-17T23:35:02;8.90;;;3.80;;
75971;SDS011;64651;47.540;19.088;2023-05-17T23:40:05;8.90;;;3.90;;
75971;SDS011;64651;47.540;19.088;2023-05-17T23:45:10;8.05;;;3.72;;
75971;SDS011;64651;47.540;19.088;2023-05-17T23:50:12;8.73;;;3.50;;
75971;SDS011;64651;47.540;19.088;2023-05-17T23:55:14;8.75;;;3.30;;
